Latest Weather Observations for Swan Hill

IDV60801

Issued at 1:02 pm EST Saturday 27 August 2016 (issued every 30 minutes, with the page automatically refreshed every 10 minutes)

About weather observations | Map of weather stations | Latest weather observations for VIC | Other Formats
Station Details ID: 077094 Name: SWAN HILL AERODROME Lat: -35.38 Lon: 143.54 Height: 71.0 m
Data from the previous 72 hours. | See also: Recent months at Swan Hill
Date/Time
EST
Temp
°C
App
Temp
°C
Dew
Point
°C
Rel
Hum
%
Delta-T
°C
Wind Press
QNH
hPa
Press
MSL
hPa
Rain since
9am
mm
Dir  Spd
km/h
Gust
km/h
Spd
kts
Gust
kts
27/01:00pm 14.9 8.6 1.8 41 5.7 NW 24 35 13 19 1022.4 1022.5 0.0
27/12:30pm 14.7 8.6 2.6 44 5.4 NW 24 35 13 19 1022.8 1022.9 0.0
27/12:00pm 14.4 9.0 2.3 44 5.3 NW 20 32 11 17 1023.4 1023.5 0.0
27/11:30am 14.0 8.2 2.3 45 5.2 NW 22 32 12 17 1023.8 1023.9 0.0
27/11:00am 13.4 7.5 2.0 46 4.9 NNW 22 32 12 17 1023.9 1024.0 0.0
27/10:30am 12.9 8.1 4.6 57 3.8 NNW 19 26 10 14 1024.1 1024.2 0.0
27/10:00am 12.0 7.0 4.7 61 3.3 NNW 20 24 11 13 1024.2 1024.3 0.0
27/09:30am 10.7 6.2 4.4 65 2.8 NNW 17 20 9 11 1024.8 1024.9 0.0
27/09:00am 9.2 4.7 4.2 71 2.2 NNW 17 20 9 11 1025.0 1025.1 0.0
27/08:30am 7.2 4.2 4.3 82 1.3 NNW 9 11 5 6 1024.8 1024.9 0.0
27/08:00am 4.9 2.1 3.2 89 0.7 N 7 11 4 6 1024.6 1024.7 0.0
27/07:30am 3.3 -0.1 2.1 92 0.5 NW 9 13 5 7 1024.5 1024.6 0.0
27/07:00am 1.5 -1.8 0.3 92 0.4 NW 7 11 4 6 1024.3 1024.4 0.0
27/06:30am 1.0 -2.3 -0.1 92 0.4 SSW 7 9 4 5 1024.0 1024.1 0.0
27/06:00am 0.9 -2.8 -0.2 92 0.4 SSW 9 9 5 5 1023.7 1023.8 0.0
27/05:30am 0.3 -3.2 -1.0 91 0.5 SSW 7 9 4 5 1023.5 1023.6 0.0
27/05:00am -0.2 -4.1 -1.5 91 0.4 SSW 9 11 5 6 1023.1 1023.2 0.0
27/04:30am 0.3 -3.0 -1.1 90 0.5 SSW 6 7 3 4 1022.8 1022.9 0.0
27/04:00am 0.6 -2.6 -0.7 91 0.5 SSW 6 7 3 4 1022.7 1022.8 0.0
27/03:30am 1.2 -2.1 -0.1 91 0.5 SSW 7 9 4 5 1022.8 1022.9 0.0
27/03:00am 0.9 -1.2 -0.5 90 0.5 CALM 0 0 0 0 1023.0 1023.1 0.0
27/02:30am 1.0 -1.1 -0.5 90 0.5 CALM 0 0 0 0 1023.5 1023.6 0.0
27/02:00am 1.2 -2.2 -0.4 89 0.6 SSW 7 7 4 4 1023.6 1023.7 0.0
27/01:30am 1.6 -0.4 0.0 89 0.6 CALM 0 0 0 0 1023.8 1023.9 0.0
27/01:00am 1.8 -0.9 0.2 89 0.6 SSW 4 6 2 3 1023.9 1024.0 0.0
27/12:30am 2.4 -0.6 0.9 90 0.6 SSW 6 7 3 4 1023.9 1024.0 0.0
27/12:00am 1.9 -1.8 0.1 88 0.7 SSW 9 11 5 6 1024.0 1024.1 0.0
 
Date/Time
EST
Temp
°C
App
Temp
°C
Dew
Point
°C
Rel
Hum
%
Delta-T
°C
Wind Press
QNH
hPa
Press
MSL
hPa
Rain since
9am
mm
Dir  Spd
km/h
Gust
km/h
Spd
kts
Gust
kts
26/11:30pm 2.5 0.6 0.6 87 0.7 CALM 0 0 0 0 1024.3 1024.4 0.0
26/11:00pm 3.1 1.3 1.0 86 0.8 CALM 0 0 0 0 1024.0 1024.1 0.0
26/10:30pm 3.4 1.6 1.1 85 0.9 CALM 0 0 0 0 1024.2 1024.3 0.0
26/10:00pm 3.8 2.0 1.0 82 1.1 CALM 0 0 0 0 1024.1 1024.2 0.0
26/09:30pm 4.0 2.2 1.2 82 1.1 CALM 0 0 0 0 1024.2 1024.3 0.0
26/09:00pm 4.3 1.8 1.3 81 1.2 SSW 4 6 2 3 1024.1 1024.2 0.0
26/08:30pm 4.5 1.6 1.4 80 1.2 SSW 6 7 3 4 1023.8 1023.9 0.0
26/08:00pm 4.9 2.7 1.2 77 1.4 SSW 2 6 1 3 1023.6 1023.7 0.0
26/07:30pm 7.0 3.6 2.1 71 2.0 SSW 9 9 5 5 1023.4 1023.5 0.0
26/07:00pm 7.2 3.5 2.3 71 2.0 SW 11 13 6 7 1023.3 1023.4 0.0
26/06:30pm 9.1 5.8 2.7 64 2.7 SW 9 11 5 6 1022.9 1023.0 0.0
26/06:00pm 10.0 6.8 2.8 61 3.1 SW 9 13 5 7 1022.5 1022.6 0.0
26/05:30pm 11.4 7.8 2.9 56 3.7 SW 11 15 6 8 1022.3 1022.4 0.0
26/05:00pm 12.4 8.2 1.7 48 4.6 SSW 13 19 7 10 1022.1 1022.2 0.0
26/04:30pm 12.5 8.8 2.1 49 4.5 WSW 11 17 6 9 1022.1 1022.2 0.0
26/04:00pm 12.9 8.0 1.9 47 4.7 WSW 17 22 9 12 1022.0 1022.1 0.0
26/03:30pm 13.7 8.8 2.0 45 5.1 WSW 17 26 9 14 1021.9 1022.0 0.0
26/03:00pm 12.6 8.1 2.2 49 4.5 SW 15 20 8 11 1021.9 1022.0 0.0
26/02:30pm 13.0 8.5 2.3 48 4.7 SW 15 20 8 11 1022.0 1022.1 0.0
26/02:00pm 13.8 9.3 2.4 46 5.0 WNW 15 20 8 11 1022.2 1022.3 0.0
26/01:30pm 12.5 8.4 4.2 57 3.8 SW 15 20 8 11 1022.7 1022.8 0.0
26/01:00pm 12.7 8.4 3.1 52 4.2 WSW 15 17 8 9 1022.9 1023.0 0.0
26/12:30pm 12.7 7.8 2.3 49 4.5 WSW 17 24 9 13 1023.1 1023.2 0.0
26/12:00pm 11.6 7.7 5.5 66 2.8 WSW 15 17 8 9 1023.6 1023.7 0.0
26/11:30am 11.7 8.2 3.7 58 3.6 W 11 15 6 8 1023.7 1023.8 0.0
26/11:00am 11.7 8.6 5.6 66 2.8 WSW 11 17 6 9 1024.0 1024.1 0.0
26/10:30am 10.6 7.7 4.7 67 2.7 WSW 9 15 5 8 1024.2 1024.3 0.0
26/10:00am 9.7 6.8 4.9 72 2.2 WSW 9 15 5 8 1024.2 1024.3 0.0
26/09:30am 8.4 5.2 5.3 81 1.4 WSW 11 15 6 8 1024.1 1024.2 0.0
26/09:00am 6.8 4.6 5.3 90 0.7 WSW 6 9 3 5 1023.9 1024.0 0.0
26/08:30am 4.4 1.6 3.4 93 0.4 WSW 7 9 4 5 1023.8 1023.9 0.0
26/08:00am 1.9 -1.3 0.9 93 0.4 WSW 7 7 4 4 1023.9 1024.0 0.0
26/07:30am 0.1 -3.3 -0.9 93 0.4 WSW 7 9 4 5 1023.5 1023.6 0.0
26/07:00am -0.3 -4.2 -1.3 93 0.3 WSW 9 19 5 10 1023.0 1023.1 0.0
26/06:30am -0.8 -4.8 -1.9 92 0.3 WSW 9 11 5 6 1022.6 1022.7 0.0
26/06:00am -0.8 -4.2 -2.1 91 0.4 WSW 6 9 3 5 1022.3 1022.4 0.0
26/05:30am -0.8 -3.1 -2.1 91 0.4 CALM 0 0 0 0 1021.9 1022.0 0.0
26/05:00am 0.0 -2.2 -1.3 91 0.5 CALM 0 0 0 0 1021.6 1021.7 0.0
26/04:30am 0.2 -1.9 -1.1 91 0.5 CALM 0 0 0 0 1021.3 1021.4 0.0
26/04:00am 0.8 -2.0 -0.6 90 0.5 WSW 4 7 2 4 1021.0 1021.1 0.0
26/03:30am 1.2 -2.1 -0.1 91 0.5 WSW 7 9 4 5 1021.0 1021.1 0.0
26/03:00am 0.4 -1.8 -1.2 89 0.6 CALM 0 6 0 3 1021.0 1021.1 0.0
26/02:30am 1.6 -2.0 0.3 91 0.5 WSW 9 13 5 7 1021.0 1021.1 0.0
26/02:00am 1.6 -0.8 -0.3 87 0.7 SSW 2 9 1 5 1020.9 1021.0 0.0
26/01:30am 3.3 0.2 1.2 86 0.8 SSW 7 11 4 6 1020.8 1020.9 0.0
26/01:00am 2.0 -1.3 -0.2 85 0.8 SSW 7 9 4 5 1020.9 1021.0 0.0
26/12:30am 3.1 -0.5 0.5 83 1.0 SSW 9 11 5 6 1020.8 1020.9 0.0
26/12:00am 3.8 0.3 1.0 82 1.1 SSW 9 11 5 6 1020.7 1020.8 0.0
 
Date/Time
EST
Temp
°C
App
Temp
°C
Dew
Point
°C
Rel
Hum
%
Delta-T
°C
Wind Press
QNH
hPa
Press
MSL
hPa
Rain since
9am
mm
Dir  Spd
km/h
Gust
km/h
Spd
kts
Gust
kts
25/11:30pm 3.5 0.0 1.1 84 0.9 SSW 9 11 5 6 1020.7 1020.8 0.0
25/11:00pm 3.1 0.0 0.2 81 1.1 SSW 6 7 3 4 1020.5 1020.6 0.0
25/10:30pm 4.2 0.7 1.1 80 1.2 SSW 9 9 5 5 1020.4 1020.5 0.0
25/10:00pm 3.3 0.1 0.7 83 1.0 SW 7 9 4 5 1020.2 1020.3 0.0
25/09:30pm 3.9 0.4 1.4 84 1.0 SW 9 11 5 6 1020.1 1020.2 0.0
25/09:00pm 5.9 2.2 2.2 77 1.5 SW 11 15 6 8 1019.8 1019.9 0.0
25/08:30pm 4.9 0.8 2.3 83 1.1 WSW 13 15 7 8 1019.6 1019.7 0.0
25/08:00pm 5.6 1.9 2.3 79 1.3 WSW 11 15 6 8 1019.4 1019.5 0.0
25/07:30pm 5.9 2.2 2.4 78 1.4 SW 11 13 6 7 1019.1 1019.2 0.0
25/07:00pm 7.3 3.7 2.8 73 1.9 SW 11 13 6 7 1018.8 1018.8 0.0
25/06:30pm 7.9 4.7 2.8 70 2.2 SW 9 13 5 7 1018.5 1018.5 0.0
25/06:00pm 10.2 6.4 3.7 64 2.9 SW 13 17 7 9 1018.0 1018.1 0.0
25/05:30pm 11.8 7.3 4.1 59 3.5 SW 17 24 9 13 1017.6 1017.7 0.0
25/05:00pm 12.8 8.5 3.5 53 4.2 SW 15 22 8 12 1017.2 1017.3 0.0
25/04:30pm 13.2 8.1 3.0 50 4.5 SW 19 26 10 14 1016.9 1017.0 0.0
25/04:00pm 12.9 8.9 4.8 58 3.7 S 15 24 8 13 1016.8 1016.9 0.0
25/03:30pm 12.4 8.0 4.6 59 3.6 S 17 24 9 13 1016.7 1016.8 0.0
25/03:00pm 13.8 8.5 3.0 48 4.8 SSW 20 30 11 16 1016.6 1016.7 0.0
25/02:30pm 13.7 7.2 2.9 48 4.8 SW 26 35 14 19 1016.6 1016.7 0.0
25/02:00pm 13.6 8.2 2.2 46 5.0 SW 20 33 11 18 1016.6 1016.7 0.0
25/01:30pm 13.3 6.8 2.5 48 4.8 SW 26 37 14 20 1016.7 1016.8 0.0
25/01:00pm 13.0 7.7 3.1 51 4.4 SW 20 30 11 16 1016.9 1017.0 0.0
25/12:30pm 12.8 7.6 3.5 53 4.2 SW 20 30 11 16 1017.0 1017.1 0.0
25/12:00pm 12.1 7.2 4.3 59 3.5 SW 19 26 10 14 1017.1 1017.2 0.0
25/11:30am 11.8 7.0 4.8 62 3.2 SW 19 26 10 14 1017.4 1017.5 0.0
25/11:00am 11.5 6.8 6.2 70 2.5 SW 20 33 11 18 1017.5 1017.6 0.0
25/10:30am 10.5 5.5 6.3 75 2.0 SW 22 32 12 17 1017.5 1017.6 0.0
25/10:00am 9.3 3.6 5.1 75 1.9 SW 24 30 13 16 1017.4 1017.5 0.0
25/09:30am 8.1 3.0 4.3 77 1.7 SW 20 28 11 15 1017.2 1017.3 0.0
25/09:00am 6.6 2.1 4.1 84 1.1 SW 17 22 9 12 1017.1 1017.2 0.2
25/08:30am 4.8 0.4 2.8 87 0.8 SW 15 20 8 11 1017.0 1017.1 0.2
25/08:00am 3.3 -0.8 2.0 91 0.5 SW 13 19 7 10 1016.9 1017.0 0.2
25/07:30am 1.5 -2.5 0.5 93 0.4 SW 11 17 6 9 1016.5 1016.6 0.2
25/07:00am 1.0 -3.1 0.0 93 0.4 SW 11 13 6 7 1016.2 1016.3 0.2
25/06:30am 1.2 -3.2 0.2 93 0.4 SW 13 17 7 9 1015.8 1015.9 0.2
25/06:00am 1.1 -2.6 -0.1 92 0.4 SW 9 15 5 8 1015.5 1015.6 0.2
25/05:30am 1.0 -2.7 -0.1 92 0.4 SW 9 13 5 7 1015.1 1015.2 0.2
25/05:00am 1.4 -2.7 0.1 91 0.5 SW 11 13 6 7 1014.9 1015.0 0.2
25/04:30am 2.5 -1.8 1.2 91 0.5 SW 13 17 7 9 1014.7 1014.8 0.2
25/04:00am 2.7 -1.5 1.4 91 0.5 SW 13 17 7 9 1014.5 1014.6 0.2
25/03:30am 3.2 -1.4 1.7 90 0.6 SW 15 19 8 10 1014.4 1014.5 0.2
25/03:00am 3.2 -1.0 1.7 90 0.6 SW 13 17 7 9 1014.4 1014.5 0.2
25/02:30am 3.7 0.7 2.1 89 0.6 SSW 7 9 4 5 1014.3 1014.4 0.2
25/02:00am 4.2 0.9 2.4 88 0.7 SSW 9 13 5 7 1014.4 1014.5 0.2
25/01:30am 4.7 0.7 2.7 87 0.8 SSW 13 19 7 10 1014.3 1014.4 0.2
25/01:00am 4.7 1.1 2.7 87 0.8 SSW 11 17 6 9 1014.3 1014.4 0.2
25/12:30am 4.0 0.2 2.0 87 0.8 SSW 11 15 6 8 1014.4 1014.5 0.2
25/12:00am 4.1 0.3 1.8 85 0.9 SSW 11 13 6 7 1014.5 1014.6 0.2
 
Date/Time
EST
Temp
°C
App
Temp
°C
Dew
Point
°C
Rel
Hum
%
Delta-T
°C
Wind Press
QNH
hPa
Press
MSL
hPa
Rain since
9am
mm
Dir  Spd
km/h
Gust
km/h
Spd
kts
Gust
kts
24/11:30pm 4.4 0.6 1.8 83 1.0 SSW 11 15 6 8 1014.6 1014.7 0.2
24/11:00pm 4.6 0.0 1.8 82 1.1 SW 15 19 8 10 1014.5 1014.6 0.2
24/10:30pm 4.9 0.3 1.4 78 1.4 SW 15 19 8 10 1014.6 1014.7 0.2
24/10:00pm 5.4 1.2 1.5 76 1.6 SW 13 17 7 9 1014.5 1014.6 0.2
24/09:30pm 5.3 1.1 1.4 76 1.5 SW 13 17 7 9 1014.3 1014.4 0.2
24/09:00pm 6.1 1.9 1.4 72 1.9 SSW 13 15 7 8 1014.1 1014.2 0.2
24/08:30pm 6.3 2.5 1.8 73 1.8 SW 11 13 6 7 1014.0 1014.1 0.2
24/08:00pm 6.7 3.3 2.0 72 1.9 SSW 9 13 5 7 1014.0 1014.1 0.2
24/07:30pm 7.2 3.2 2.7 73 1.9 SW 13 17 7 9 1013.9 1014.0 0.2
24/07:00pm 7.5 3.1 2.8 72 2.0 SW 15 17 8 9 1013.7 1013.8 0.2
24/06:30pm 8.2 3.8 2.9 69 2.2 SW 15 19 8 10 1013.4 1013.5 0.2
24/06:00pm 9.9 6.0 3.2 63 2.9 SW 13 17 7 9 1013.1 1013.2 0.2
24/05:30pm 11.7 7.4 3.2 56 3.7 SW 15 20 8 11 1013.0 1013.1 0.2
24/05:00pm 12.9 8.6 3.3 52 4.3 SSW 15 24 8 13 1012.7 1012.8 0.2
24/04:30pm 13.4 8.7 3.2 50 4.6 SSW 17 24 9 13 1012.7 1012.8 0.2
24/04:00pm 13.8 9.1 3.3 49 4.7 SSW 17 30 9 16 1012.7 1012.8 0.2
24/03:30pm 13.6 8.3 2.8 48 4.8 SSW 20 35 11 19 1012.7 1012.8 0.0
24/03:00pm 14.2 9.1 3.1 47 5.0 SSW 19 30 10 16 1012.7 1012.8 0.0
24/02:30pm 13.7 9.0 2.9 48 4.8 S 17 28 9 15 1012.8 1012.9 0.0
24/02:00pm 13.9 9.2 3.1 48 4.8 SSW 17 28 9 15 1013.0 1013.1 0.0
24/01:30pm 13.6 8.7 1.9 45 5.1 S 17 26 9 14 1013.2 1013.3 0.0

Other Formats:

Comma delimited format used in spreadsheet applications
http://www.bom.gov.au/fwo/IDV60801/IDV60801.94843.axf

JavaScript Object Notation format (JSON) in row-major order
http://www.bom.gov.au/fwo/IDV60801/IDV60801.94843.json